createdAt,value
2018-02-23T00:00:38.588Z,83.07
2018-02-23T00:03:07.000Z,82.88
2018-02-23T00:05:37.488Z,83.00
2018-02-23T00:08:05.771Z,82.58
2018-02-23T00:10:34.080Z,83.18
2018-02-23T00:13:02.364Z,82.56
2018-02-23T00:15:31.413Z,82.28
2018-02-23T00:17:59.727Z,82.27
2018-02-23T00:20:28.009Z,81.81
2018-02-23T00:22:56.283Z,81.89
2018-02-23T00:25:24.715Z,81.08
2018-02-23T00:27:53.928Z,81.06
2018-02-23T00:30:22.337Z,80.97
2018-02-23T00:32:51.048Z,80.40
2018-02-23T00:35:20.117Z,80.31
2018-02-23T00:37:49.121Z,80.04
2018-02-23T00:40:17.409Z,79.97
2018-02-23T00:42:47.164Z,79.91
2018-02-23T00:45:15.655Z,80.65
2018-02-23T00:47:43.935Z,80.86
2018-02-23T00:50:13.403Z,80.69
2018-02-23T00:52:41.699Z,80.39
2018-02-23T00:55:09.993Z,80.32
2018-02-23T00:57:38.624Z,80.62
2018-02-23T01:00:08.689Z,79.73
2018-02-23T01:02:36.972Z,79.71
2018-02-23T01:05:05.289Z,79.93
2018-02-23T01:07:33.581Z,80.05
2018-02-23T01:10:03.823Z,80.57
2018-02-23T01:12:32.109Z,80.59
2018-02-23T01:15:00.509Z,80.32
2018-02-23T01:17:28.918Z,80.66
2018-02-23T01:19:57.204Z,80.18
2018-02-23T01:22:26.269Z,80.76
2018-02-23T01:24:56.781Z,80.88
2018-02-23T01:27:26.000Z,81.14
2018-02-23T01:29:54.334Z,81.20
2018-02-23T01:32:23.394Z,81.34
2018-02-23T01:34:52.537Z,81.67
2018-02-23T01:37:21.977Z,82.00
2018-02-23T01:39:50.268Z,81.91
2018-02-23T01:42:18.797Z,82.40
2018-02-23T01:44:47.896Z,82.54
2018-02-23T01:47:17.747Z,83.11
2018-02-23T01:49:46.025Z,82.60
2018-02-23T01:52:14.403Z,82.95
2018-02-23T01:54:42.984Z,83.19
2018-02-23T01:57:11.260Z,83.06
2018-02-23T01:59:40.471Z,82.85
2018-02-23T02:02:08.773Z,82.75
2018-02-23T02:04:37.068Z,82.09
2018-02-23T02:07:06.218Z,81.57
2018-02-23T02:09:34.604Z,82.09
2018-02-23T02:12:03.482Z,82.34
2018-02-23T02:14:31.780Z,82.59
2018-02-23T02:17:00.116Z,82.50
2018-02-23T02:19:29.304Z,82.11
2018-02-23T02:21:58.348Z,82.04
2018-02-23T02:24:26.636Z,82.05
2018-02-23T02:26:55.008Z,82.54
2018-02-23T02:29:23.633Z,82.20
2018-02-23T02:31:53.449Z,82.61
2018-02-23T02:34:22.890Z,82.12
2018-02-23T02:36:51.162Z,81.57
2018-02-23T02:39:20.284Z,81.01
2018-02-23T02:41:48.602Z,80.60
2018-02-23T02:44:17.568Z,80.69
2018-02-23T02:46:46.768Z,81.04
2018-02-23T02:49:16.540Z,80.38
2018-02-23T02:51:45.559Z,80.63
2018-02-23T02:54:13.828Z,80.91
2018-02-23T02:56:46.909Z,80.50
2018-02-23T02:59:15.183Z,80.66
2018-02-23T03:01:43.498Z,80.73
2018-02-23T03:04:12.116Z,80.78
2018-02-23T03:06:42.144Z,80.49
2018-02-23T03:09:11.960Z,80.30
2018-02-23T03:11:40.997Z,80.15
2018-02-23T03:14:09.292Z,79.83
2018-02-23T03:16:39.060Z,80.27
2018-02-23T03:19:07.348Z,79.53
2018-02-23T03:21:35.626Z,79.40
2018-02-23T03:24:04.161Z,78.93
2018-02-23T03:26:33.018Z,78.35
2018-02-23T03:29:01.340Z,78.50
2018-02-23T03:31:30.425Z,78.51
2018-02-23T03:33:59.487Z,78.89
2018-02-23T03:36:27.968Z,78.83
2018-02-23T03:38:56.756Z,77.74
2018-02-23T03:41:26.623Z,78.56
2018-02-23T03:43:56.132Z,78.70
2018-02-23T03:46:25.605Z,79.08
2018-02-23T03:48:54.417Z,78.94
2018-02-23T03:51:23.625Z,79.27
2018-02-23T03:53:54.124Z,79.20
2018-02-23T03:56:22.496Z,78.62
2018-02-23T03:58:50.849Z,79.02
2018-02-23T04:01:19.338Z,79.02
2018-02-23T04:03:48.501Z,79.04
2018-02-23T04:06:18.114Z,78.87
2018-02-23T04:08:47.223Z,79.49
2018-02-23T04:11:15.497Z,79.22
2018-02-23T04:13:44.267Z,79.08
2018-02-23T04:16:13.512Z,79.82
2018-02-23T04:18:41.791Z,79.80
2018-02-23T04:21:10.101Z,80.33
2018-02-23T04:23:38.410Z,80.36
2018-02-23T04:26:07.721Z,80.63
2018-02-23T04:28:36.283Z,80.55
2018-02-23T04:31:04.597Z,80.68
2018-02-23T04:33:32.889Z,80.93
2018-02-23T04:36:01.546Z,80.62
2018-02-23T04:38:30.681Z,81.27
2018-02-23T04:40:58.986Z,80.75
2018-02-23T04:43:28.033Z,81.15
2018-02-23T04:45:57.077Z,81.52
2018-02-23T04:48:25.359Z,81.45
2018-02-23T04:50:54.225Z,81.48
2018-02-23T04:53:22.529Z,82.08
2018-02-23T04:55:50.841Z,81.89
2018-02-23T04:58:20.724Z,81.55
2018-02-23T05:00:49.030Z,81.47
2018-02-23T05:03:18.297Z,81.74
2018-02-23T05:05:47.767Z,81.99
2018-02-23T05:08:16.498Z,81.65
2018-02-23T05:10:44.821Z,82.18
2018-02-23T05:13:13.883Z,82.35
2018-02-23T05:15:47.830Z,82.55
2018-02-23T05:18:17.524Z,82.19
2018-02-23T05:20:45.835Z,82.43
2018-02-23T05:23:14.922Z,82.44
2018-02-23T05:25:43.733Z,82.35
2018-02-23T05:28:12.704Z,82.38
2018-02-23T05:30:41.000Z,82.36
2018-02-23T05:33:10.284Z,83.29
2018-02-23T05:35:39.479Z,82.79
2018-02-23T05:38:07.860Z,82.44
2018-02-23T05:40:36.142Z,82.97
2018-02-23T05:43:04.996Z,82.56
2018-02-23T05:45:34.356Z,82.85
2018-02-23T05:48:02.717Z,83.01
2018-02-23T05:50:32.303Z,82.55
2018-02-23T05:53:01.131Z,82.79
2018-02-23T05:55:29.440Z,82.35
2018-02-23T05:57:58.335Z,81.93
2018-02-23T06:00:26.896Z,82.18
2018-02-23T06:02:55.260Z,82.27
2018-02-23T06:05:23.561Z,82.64
2018-02-23T06:07:51.924Z,82.64
2018-02-23T06:10:21.224Z,82.88
2018-02-23T06:12:49.541Z,82.46
2018-02-23T06:15:19.331Z,82.92
2018-02-23T06:17:53.368Z,82.56
2018-02-23T06:20:28.069Z,82.22
2018-02-23T06:22:56.843Z,82.06
2018-02-23T06:25:25.131Z,82.39
2018-02-23T06:27:53.657Z,81.53
2018-02-23T06:30:23.069Z,81.46
2018-02-23T06:32:52.356Z,81.57
2018-02-23T06:35:21.392Z,81.61
2018-02-23T06:37:49.779Z,80.97
2018-02-23T06:40:18.983Z,81.22
2018-02-23T06:42:47.897Z,80.97
2018-02-23T06:45:16.493Z,80.12
2018-02-23T06:47:45.619Z,79.61
2018-02-23T06:50:13.905Z,78.94
2018-02-23T06:52:42.433Z,79.06
2018-02-23T06:55:10.731Z,78.79
2018-02-23T06:57:39.065Z,78.70
2018-02-23T07:00:07.523Z,78.92
2018-02-23T07:02:38.558Z,79.58
2018-02-23T07:05:07.949Z,79.63
2018-02-23T07:07:38.987Z,78.32
2018-02-23T07:10:08.431Z,78.17
2018-02-23T07:12:37.219Z,77.94
2018-02-23T07:15:05.541Z,77.96
2018-02-23T07:17:33.886Z,77.89
2018-02-23T07:20:04.242Z,77.41
2018-02-23T07:22:32.613Z,77.14
2018-02-23T07:25:01.705Z,76.33
2018-02-23T07:27:30.076Z,76.44
2018-02-23T07:29:58.347Z,76.56
2018-02-23T07:32:28.187Z,76.22
2018-02-23T07:34:56.491Z,75.41
2018-02-23T07:37:27.195Z,75.54
2018-02-23T07:39:55.463Z,75.17
2018-02-23T07:42:24.025Z,77.21
2018-02-23T07:44:52.295Z,76.71
2018-02-23T07:47:21.073Z,75.85
2018-02-23T07:49:49.361Z,75.77
2018-02-23T07:52:17.632Z,73.76
2018-02-23T07:54:45.936Z,72.48
2018-02-23T07:57:14.229Z,72.60
2018-02-23T07:59:42.541Z,71.93
2018-02-23T08:02:10.868Z,71.40
2018-02-23T08:04:39.141Z,71.49
2018-02-23T08:07:07.428Z,71.69
2018-02-23T08:09:35.708Z,69.22
2018-02-23T08:12:04.100Z,68.99
2018-02-23T08:14:32.389Z,70.39
2018-02-23T08:17:01.566Z,68.80
2018-02-23T08:19:29.944Z,68.97
2018-02-23T08:21:58.240Z,69.01
2018-02-23T08:24:26.508Z,67.49
2018-02-23T08:26:55.200Z,64.27
2018-02-23T08:29:23.925Z,65.55
2018-02-23T08:31:52.964Z,63.49
2018-02-23T08:34:21.301Z,63.86
2018-02-23T08:36:50.365Z,65.70
2018-02-23T08:39:18.720Z,64.60
2018-02-23T08:41:47.040Z,67.88
2018-02-23T08:44:15.313Z,64.97
2018-02-23T08:46:44.444Z,64.77
2018-02-23T08:49:13.571Z,61.33
2018-02-23T08:51:42.339Z,62.36
2018-02-23T08:54:10.604Z,63.64
2018-02-23T08:56:39.869Z,63.93
2018-02-23T08:59:08.705Z,63.21
2018-02-23T09:01:36.979Z,64.03
2018-02-23T09:04:06.416Z,64.55
2018-02-23T09:06:34.684Z,66.40
2018-02-23T09:09:02.955Z,65.60
2018-02-23T09:11:31.559Z,65.41
2018-02-23T09:13:59.820Z,64.28
2018-02-23T09:16:29.285Z,64.41
2018-02-23T09:18:57.616Z,63.94
2018-02-23T09:21:26.031Z,63.56
2018-02-23T09:23:54.389Z,62.39
2018-02-23T09:26:22.708Z,62.17
2018-02-23T09:28:52.080Z,62.40
2018-02-23T09:31:21.275Z,60.01
2018-02-23T09:34:07.375Z,61.24
2018-02-23T09:36:35.664Z,61.37
2018-02-23T09:39:04.133Z,60.29
2018-02-23T09:41:32.531Z,59.80
2018-02-23T09:44:00.802Z,59.37
2018-02-23T09:46:29.363Z,60.10
2018-02-23T09:48:57.644Z,58.74
2018-02-23T09:51:25.917Z,58.70
2018-02-23T09:53:54.232Z,59.71
2018-02-23T09:56:22.529Z,59.52
2018-02-23T09:58:51.675Z,57.17
2018-02-23T10:01:19.969Z,57.55
2018-02-23T10:03:48.240Z,55.85
2018-02-23T10:06:17.215Z,56.89
2018-02-23T10:08:45.603Z,55.77
2018-02-23T10:11:14.104Z,55.95
2018-02-23T10:13:43.204Z,56.85
2018-02-23T10:16:11.763Z,56.46
2018-02-23T10:18:40.033Z,56.64
2018-02-23T10:21:08.967Z,57.44
2018-02-23T10:23:37.347Z,56.70
2018-02-23T10:26:05.601Z,55.29
2018-02-23T10:28:33.893Z,55.49
2018-02-23T10:31:02.952Z,56.81
2018-02-23T10:33:31.220Z,56.47
2018-02-23T10:35:59.526Z,56.75
2018-02-23T10:38:27.799Z,56.36
2018-02-23T10:40:56.085Z,56.13
2018-02-23T10:43:24.644Z,55.63
2018-02-23T10:45:56.976Z,55.72
2018-02-23T10:48:25.244Z,54.94
2018-02-23T10:50:54.508Z,55.20
2018-02-23T10:53:23.041Z,56.09
2018-02-23T10:55:52.716Z,56.27
2018-02-23T10:58:21.033Z,56.97
2018-02-23T11:00:50.693Z,56.49
2018-02-23T11:03:19.698Z,56.22
2018-02-23T11:05:48.086Z,57.42
2018-02-23T11:08:16.361Z,56.18
2018-02-23T11:10:44.959Z,57.13
2018-02-23T11:13:13.617Z,55.60
2018-02-23T11:15:41.876Z,54.74
2018-02-23T11:18:11.885Z,55.92
2018-02-23T11:20:41.477Z,55.18
2018-02-23T11:23:10.499Z,54.94
2018-02-23T11:25:38.822Z,55.92
2018-02-23T11:28:07.156Z,56.26
2018-02-23T11:30:35.805Z,56.51
2018-02-23T11:33:04.988Z,58.14
2018-02-23T11:35:33.394Z,58.45
2018-02-23T11:38:02.455Z,57.91
2018-02-23T11:40:31.501Z,55.75
2018-02-23T11:43:00.626Z,54.88
2018-02-23T11:45:28.912Z,53.43
2018-02-23T11:47:57.196Z,53.03
2018-02-23T11:50:25.613Z,55.06
2018-02-23T11:52:53.838Z,54.83
2018-02-23T11:55:22.121Z,54.83
2018-02-23T11:57:50.412Z,53.77
2018-02-23T12:00:18.676Z,53.48
2018-02-23T12:02:47.067Z,53.27
2018-02-23T12:05:16.177Z,54.17
2018-02-23T12:07:44.452Z,55.25
2018-02-23T12:10:13.063Z,54.01
2018-02-23T12:12:42.117Z,53.22
2018-02-23T12:15:11.010Z,52.12
2018-02-23T12:17:41.630Z,54.30
2018-02-23T12:20:09.898Z,52.98
2018-02-23T12:22:38.193Z,52.60
2018-02-23T12:25:07.107Z,52.71
2018-02-23T12:27:35.396Z,53.30
2018-02-23T12:30:03.710Z,52.09
2018-02-23T12:32:32.008Z,50.79
2018-02-23T12:35:00.813Z,51.52
2018-02-23T12:37:29.093Z,51.40
2018-02-23T12:39:57.586Z,52.60
2018-02-23T12:42:25.872Z,51.95
2018-02-23T12:44:54.263Z,51.60
2018-02-23T12:47:23.332Z,53.93
2018-02-23T12:49:51.640Z,52.61
2018-02-23T12:52:19.927Z,52.29
2018-02-23T12:54:49.055Z,51.62
2018-02-23T12:57:17.568Z,51.42
2018-02-23T12:59:45.913Z,52.31
2018-02-23T13:02:14.149Z,51.71
2018-02-23T13:04:42.509Z,51.74
2018-02-23T13:07:10.801Z,51.00
2018-02-23T13:09:39.251Z,50.09
2018-02-23T13:12:07.576Z,51.31
2018-02-23T13:14:42.043Z,46.89
2018-02-23T13:17:10.360Z,41.83
2018-02-23T13:19:38.643Z,39.91
2018-02-23T13:22:06.917Z,38.50
2018-02-23T13:24:35.227Z,37.16
2018-02-23T13:27:09.013Z,36.08
2018-02-23T13:29:37.344Z,39.30
2018-02-23T13:32:05.635Z,41.69
2018-02-23T13:34:33.892Z,43.16
2018-02-23T13:37:02.289Z,45.48
2018-02-23T13:39:30.573Z,45.21
2018-02-23T13:41:58.868Z,44.89
2018-02-23T13:44:27.534Z,44.22
2018-02-23T13:46:56.496Z,45.18
2018-02-23T13:49:24.774Z,45.58
2018-02-23T13:51:53.281Z,43.35
2018-02-23T13:54:24.381Z,42.61
2018-02-23T13:56:53.460Z,45.54
2018-02-23T13:59:22.010Z,45.68
2018-02-23T14:01:50.291Z,46.73
2018-02-23T14:04:18.565Z,45.12
2018-02-23T14:06:48.686Z,47.72
2018-02-23T14:09:16.960Z,46.33
2018-02-23T14:11:45.419Z,43.72
2018-02-23T14:14:13.965Z,44.74
2018-02-23T14:16:42.479Z,45.80
2018-02-23T14:19:10.768Z,45.32
2018-02-23T14:21:39.065Z,46.33
2018-02-23T14:24:07.410Z,47.18
2018-02-23T14:26:35.715Z,46.71
2018-02-23T14:29:04.009Z,48.12
2018-02-23T14:31:32.486Z,48.77
2018-02-23T14:34:00.770Z,47.37
2018-02-23T14:36:29.344Z,47.64
2018-02-23T14:38:57.615Z,47.90
2018-02-23T14:41:25.876Z,47.09
2018-02-23T14:43:54.174Z,45.66
2018-02-23T14:46:22.456Z,44.81
2018-02-23T14:49:08.654Z,47.23
2018-02-23T14:51:37.701Z,46.58
2018-02-23T14:54:06.964Z,45.67
2018-02-23T14:56:35.220Z,45.11
2018-02-23T14:59:03.513Z,46.90
2018-02-23T15:01:31.877Z,47.39
2018-02-23T15:04:00.428Z,47.47
2018-02-23T15:06:29.503Z,47.03
2018-02-23T15:08:59.210Z,46.71
2018-02-23T15:11:27.489Z,47.36
2018-02-23T15:13:55.816Z,48.17
2018-02-23T15:16:24.103Z,48.36
2018-02-23T15:18:52.388Z,49.72
2018-02-23T15:21:20.705Z,50.00
2018-02-23T15:23:49.092Z,48.57
2018-02-23T15:26:17.407Z,49.04
2018-02-23T15:28:45.801Z,49.69
2018-02-23T15:31:31.755Z,49.67
2018-02-23T15:34:00.076Z,49.05
2018-02-23T15:36:28.981Z,48.96
2018-02-23T15:38:57.930Z,47.94
2018-02-23T15:41:26.244Z,48.32
2018-02-23T15:43:54.521Z,48.09
2018-02-23T15:46:22.799Z,48.15
2018-02-23T15:51:53.148Z,47.96
2018-02-23T15:54:21.444Z,48.78
2018-02-23T15:56:50.333Z,50.22
2018-02-23T15:59:19.333Z,51.00
2018-02-23T16:01:47.636Z,49.07
2018-02-23T16:04:16.689Z,50.39
2018-02-23T16:06:44.985Z,49.45
2018-02-23T16:09:13.299Z,50.92
2018-02-23T16:11:42.339Z,50.66
2018-02-23T16:14:10.640Z,51.73
2018-02-23T16:16:38.954Z,52.03
2018-02-23T16:19:07.233Z,51.98
2018-02-23T16:21:35.532Z,51.78
2018-02-23T16:24:03.860Z,51.35
2018-02-23T16:26:32.141Z,49.15
2018-02-23T16:29:01.724Z,51.32
2018-02-23T16:31:30.903Z,49.82
2018-02-23T16:33:59.421Z,49.35
2018-02-23T16:36:27.796Z,50.01
2018-02-23T16:38:56.125Z,49.97
2018-02-23T16:41:25.765Z,49.09
2018-02-23T16:43:54.113Z,48.07
2018-02-23T16:46:22.428Z,49.06
2018-02-23T16:48:51.183Z,48.18
2018-02-23T16:51:19.491Z,48.75
2018-02-23T16:53:47.802Z,48.34
2018-02-23T16:56:16.739Z,48.63
2018-02-23T16:58:45.041Z,50.15
2018-02-23T17:01:13.704Z,49.63
2018-02-23T17:03:41.990Z,49.52
2018-02-23T17:06:10.393Z,50.53
2018-02-23T17:08:38.703Z,51.26
2018-02-23T17:11:09.684Z,50.25
2018-02-23T17:13:38.729Z,50.39
2018-02-23T17:16:08.532Z,51.46
2018-02-23T17:18:37.387Z,51.25
2018-02-23T17:21:05.672Z,50.46
2018-02-23T17:23:34.128Z,50.93
2018-02-23T17:26:03.135Z,52.40
2018-02-23T17:28:31.446Z,51.94
2018-02-23T17:30:59.829Z,52.79
2018-02-23T17:33:28.139Z,52.71
2018-02-23T17:35:58.501Z,53.30
2018-02-23T17:38:26.924Z,53.01
2018-02-23T17:40:55.217Z,52.79
2018-02-23T17:43:24.301Z,52.98
2018-02-23T17:45:52.636Z,53.57
2018-02-23T17:48:21.005Z,52.86
2018-02-23T17:50:49.317Z,53.44
2018-02-23T17:53:18.702Z,53.70
2018-02-23T17:55:47.749Z,52.44
2018-02-23T17:58:16.888Z,54.47
2018-02-23T18:00:46.604Z,55.03
2018-02-23T18:03:15.534Z,55.19
2018-02-23T18:05:44.310Z,55.74
2018-02-23T18:08:12.637Z,55.54
2018-02-23T18:10:41.762Z,55.47
2018-02-23T18:13:10.048Z,56.89
2018-02-23T18:15:38.629Z,56.72
2018-02-23T18:18:08.480Z,57.49
2018-02-23T18:20:37.065Z,57.90
2018-02-23T18:23:06.168Z,57.87
2018-02-23T18:25:34.794Z,58.13
2018-02-23T18:28:03.894Z,59.19
2018-02-23T18:30:35.285Z,59.21
2018-02-23T18:33:05.117Z,59.03
2018-02-23T18:35:34.223Z,59.12
2018-02-23T18:38:04.186Z,59.44
2018-02-23T18:40:32.854Z,59.51
2018-02-23T18:43:02.212Z,60.58
2018-02-23T18:45:31.338Z,59.54
2018-02-23T18:48:00.957Z,59.81
2018-02-23T18:50:29.249Z,59.99
2018-02-23T18:52:59.213Z,60.54
2018-02-23T18:55:27.877Z,61.03
2018-02-23T18:57:56.206Z,59.94
2018-02-23T19:00:25.352Z,60.67
2018-02-23T19:02:54.829Z,59.60
2018-02-23T19:05:34.506Z,60.82
2018-02-23T19:08:02.924Z,61.16
2018-02-23T19:10:32.724Z,61.42
2018-02-23T19:13:01.812Z,60.83
2018-02-23T19:15:32.551Z,61.27
2018-02-23T19:18:01.237Z,60.48
2018-02-23T19:20:30.327Z,61.36
2018-02-23T19:22:58.849Z,61.50
2018-02-23T19:25:27.987Z,60.48
2018-02-23T19:27:56.269Z,61.85
2018-02-23T19:30:25.239Z,61.72
2018-02-23T19:32:53.537Z,60.67
2018-02-23T19:35:21.830Z,62.30
2018-02-23T19:37:50.194Z,61.04
2018-02-23T19:40:18.501Z,62.33
2018-02-23T19:42:47.196Z,61.82
2018-02-23T19:45:15.545Z,61.90
2018-02-23T19:47:44.966Z,62.81
2018-02-23T19:50:13.329Z,63.32
2018-02-23T19:52:42.252Z,63.88
2018-02-23T19:55:11.594Z,62.84
2018-02-23T19:57:39.903Z,63.58
2018-02-23T20:00:08.397Z,63.47
2018-02-23T20:02:36.889Z,64.15
2018-02-23T20:05:06.199Z,63.69
2018-02-23T20:07:34.688Z,63.92
2018-02-23T20:10:03.752Z,63.72
2018-02-23T20:12:32.039Z,63.92
2018-02-23T20:15:00.522Z,65.28
2018-02-23T20:17:28.842Z,65.15
2018-02-23T20:19:57.160Z,64.08
2018-02-23T20:22:25.500Z,64.36
2018-02-23T20:24:53.784Z,64.40
2018-02-23T20:27:22.525Z,64.51
2018-02-23T20:29:51.605Z,63.94
2018-02-23T20:32:19.904Z,65.22
2018-02-23T20:34:48.874Z,64.17
2018-02-23T20:37:17.941Z,64.59
2018-02-23T20:39:46.244Z,64.65
2018-02-23T20:42:15.059Z,64.74
2018-02-23T20:44:44.817Z,64.42
2018-02-23T20:47:13.091Z,64.95
2018-02-23T20:49:41.608Z,65.14
2018-02-23T20:52:10.836Z,65.64
2018-02-23T20:54:39.161Z,65.43
2018-02-23T20:57:07.439Z,66.11
2018-02-23T20:59:35.731Z,65.64
2018-02-23T21:02:04.215Z,66.22
2018-02-23T21:04:32.511Z,66.03
2018-02-23T21:07:02.040Z,66.27
2018-02-23T21:09:31.888Z,66.25
2018-02-23T21:12:01.176Z,67.08
2018-02-23T21:14:30.317Z,66.38
2018-02-23T21:16:58.912Z,66.18
2018-02-23T21:19:27.994Z,65.99
2018-02-23T21:21:56.345Z,66.32
2018-02-23T21:24:25.328Z,66.98
2018-02-23T21:26:54.383Z,66.51
2018-02-23T21:29:22.697Z,66.62
2018-02-23T21:31:51.007Z,67.06
2018-02-23T21:34:19.526Z,66.65
2018-02-23T21:36:47.896Z,67.64
2018-02-23T21:39:16.177Z,66.90
2018-02-23T21:41:54.769Z,66.83
2018-02-23T21:44:23.056Z,66.53
2018-02-23T21:46:52.184Z,67.39
2018-02-23T21:49:20.531Z,68.29
2018-02-23T21:51:48.817Z,67.05
2018-02-23T21:54:17.165Z,67.52
2018-02-23T21:56:46.222Z,67.93
2018-02-23T21:59:14.606Z,67.34
2018-02-23T22:01:42.868Z,67.77
2018-02-23T22:04:12.249Z,67.71
2018-02-23T22:06:41.269Z,67.74
2018-02-23T22:09:10.312Z,67.24
2018-02-23T22:14:05.928Z,67.82
2018-02-23T22:16:35.272Z,67.82
2018-02-23T22:19:04.048Z,67.88
2018-02-23T22:21:33.394Z,67.75
2018-02-23T22:24:01.673Z,68.78
2018-02-23T22:26:30.730Z,68.27
2018-02-23T22:28:59.068Z,67.73
2018-02-23T22:31:28.117Z,67.98
2018-02-23T22:33:56.406Z,68.60
2018-02-23T22:36:24.761Z,68.88
2018-02-23T22:38:53.034Z,69.36
2018-02-23T22:41:21.368Z,68.52
2018-02-23T22:43:49.827Z,68.84
2018-02-23T22:46:18.133Z,69.51
2018-02-23T22:48:46.440Z,68.82
2018-02-23T22:51:14.745Z,69.20
2018-02-23T22:53:43.029Z,69.26
2018-02-23T22:56:12.131Z,69.48
2018-02-23T22:58:40.796Z,68.44
2018-02-23T23:01:09.962Z,68.96
2018-02-23T23:03:39.401Z,68.11
2018-02-23T23:06:08.453Z,68.62
2018-02-23T23:08:36.713Z,67.96
2018-02-23T23:11:05.029Z,68.53
2018-02-23T23:13:33.328Z,68.10
2018-02-23T23:16:01.623Z,67.81
2018-02-23T23:18:29.916Z,68.34
2018-02-23T23:20:58.249Z,68.94
2018-02-23T23:23:26.671Z,68.19
2018-02-23T23:25:55.031Z,67.79
2018-02-23T23:28:23.281Z,68.13
2018-02-23T23:30:52.442Z,68.97
2018-02-23T23:33:20.731Z,69.32
2018-02-23T23:35:49.061Z,68.69
2018-02-23T23:38:17.381Z,69.07
2018-02-23T23:40:45.661Z,70.38
2018-02-23T23:43:13.931Z,70.38
2018-02-23T23:45:42.231Z,70.28
2018-02-23T23:48:12.010Z,69.83
2018-02-23T23:50:40.283Z,70.46
2018-02-23T23:53:08.705Z,70.04
2018-02-23T23:55:37.738Z,70.39
2018-02-23T23:58:06.021Z,70.76
